Time;durP1;ratioP1;P1;durP2;ratioP2;P2;SDS_P1;SDS_P2;PMS_P1;PMS_P2;Temp;Humidity;BMP_temperature;BMP_pressure;BME280_temperature;BME280_humidity;BME280_pressure;Samples;Min_cycle;Max_cycle;Signal;HPM_P1;HPM_P2
2023/08/07 00:01:13;;;;;;;23.15;8.57;;;;;;;30.62;100.00;97036.13;4872558;29;20060;-66
2023/08/07 00:03:43;;;;;;;31.50;10.05;;;;;;;30.58;100.00;97054.38;4871404;29;20045;-66
2023/08/07 00:06:12;;;;;;;21.98;8.82;;;;;;;30.60;100.00;97079.44;4872258;29;20481;-66
2023/08/07 00:08:41;;;;;;;29.42;20.52;;;;;;;30.18;100.00;97078.59;4872907;29;20049;-67
2023/08/07 00:11:11;;;;;;;28.98;20.90;;;;;;;30.07;100.00;97077.56;4869329;29;20056;-66
2023/08/07 00:13:40;;;;;;;29.02;22.70;;;;;;;30.00;100.00;97083.69;4840793;29;20045;-66
2023/08/07 00:16:10;;;;;;;32.97;23.95;;;;;;;29.77;100.00;97085.47;4869901;29;20053;-67
2023/08/07 00:18:39;;;;;;;22.83;20.02;;;;;;;29.73;100.00;97090.06;4881585;29;20053;-66
2023/08/07 00:21:09;;;;;;;28.55;19.85;;;;;;;29.62;100.00;97070.72;4871285;29;20060;-67
2023/08/07 00:23:38;;;;;;;24.20;19.70;;;;;;;29.58;100.00;97069.84;4872449;29;20139;-66
2023/08/07 00:26:07;;;;;;;21.48;19.02;;;;;;;29.68;100.00;97087.63;4871585;29;20051;-66
2023/08/07 00:28:37;;;;;;;22.13;18.55;;;;;;;29.59;100.00;97097.94;4871519;29;20063;-66
2023/08/07 00:31:24;;;;;;;22.90;16.67;;;;;;;29.46;100.00;97091.78;4869839;29;20099;-67
2023/08/07 00:33:55;;;;;;;18.83;15.82;;;;;;;29.50;100.00;97113.69;4876972;29;20108;-67
2023/08/07 00:36:25;;;;;;;19.35;13.80;;;;;;;29.46;100.00;97113.63;4868727;29;20144;-67
2023/08/07 00:38:55;;;;;;;14.10;12.60;;;;;;;29.40;100.00;97126.72;4856142;29;20064;-67
2023/08/07 00:41:25;;;;;;;14.48;13.00;;;;;;;29.30;100.00;97121.81;4875549;29;20053;-66
2023/08/07 00:43:54;;;;;;;22.25;14.43;;;;;;;29.12;100.00;97117.81;4858606;29;20059;-66
2023/08/07 00:46:23;;;;;;;18.55;14.30;;;;;;;29.09;100.00;97117.72;4873086;29;20140;-67
2023/08/07 00:48:54;;;;;;;17.17;13.00;;;;;;;29.24;100.00;97120.47;4874779;29;20060;-66
2023/08/07 00:51:24;;;;;;;19.58;14.77;;;;;;;29.13;100.00;97130.31;4871781;29;20052;-66
2023/08/07 00:53:54;;;;;;;17.38;13.05;;;;;;;29.00;100.00;97134.25;4871414;29;20496;-67
2023/08/07 00:56:26;;;;;;;19.13;12.45;;;;;;;28.91;100.00;97125.44;4869352;29;20105;-66
2023/08/07 00:58:55;;;;;;;19.45;12.15;;;;;;;28.88;100.00;97131.59;4838603;29;20487;-67
2023/08/07 01:01:25;;;;;;;16.30;11.70;;;;;;;28.88;100.00;97129.69;4873031;29;20125;-66
2023/08/07 01:03:55;;;;;;;17.88;12.82;;;;;;;28.76;100.00;97123.50;4869515;29;20121;-67
2023/08/07 01:06:25;;;;;;;19.25;13.13;;;;;;;28.85;100.00;97130.38;4839385;29;20148;-67
2023/08/07 01:08:55;;;;;;;20.05;13.02;;;;;;;29.06;100.00;97121.97;4859767;29;20081;-66
2023/08/07 01:11:49;;;;;;;21.73;13.05;;;;;;;29.10;100.00;97127.50;4873143;29;20488;-66
2023/08/07 01:14:27;;;;;;;17.67;12.90;;;;;;;29.18;100.00;97119.13;4870599;29;20056;-66
2023/08/07 01:17:09;;;;;;;20.23;14.13;;;;;;;29.10;100.00;97120.13;4870613;29;20655;-66
2023/08/07 01:19:41;;;;;;;18.83;14.68;;;;;;;29.10;100.00;97109.22;4869198;29;20049;-66
2023/08/07 01:22:18;;;;;;;;;;;;;;;29.17;100.00;97100.41;4855538;29;20048;-66
2023/08/07 01:24:49;;;;;;;24.30;16.30;;;;;;;29.06;100.00;97116.50;4855954;29;19967;-67
2023/08/07 01:30:21;;;;;;;21.45;16.30;;;;;;;29.36;100.00;97142.22;4868600;29;20495;-67
2023/08/07 01:33:11;;;;;;;23.70;17.45;;;;;;;29.51;100.00;97143.38;4870391;29;20125;-67
2023/08/07 01:35:51;;;;;;;21.95;16.45;;;;;;;29.19;100.00;97152.66;4852513;29;20053;-67
2023/08/07 01:38:25;;;;;;;23.48;16.58;;;;;;;29.08;100.00;97157.06;4871039;29;20063;-67
2023/08/07 01:40:57;;;;;;;19.38;15.50;;;;;;;29.28;100.00;97156.81;4870275;29;20049;-67
2023/08/07 01:43:27;;;;;;;23.75;15.50;;;;;;;29.23;100.00;97167.97;4855207;29;20049;-66
2023/08/07 01:45:58;;;;;;;18.77;14.02;;;;;;;29.23;100.00;97170.69;4870984;29;20057;-67
2023/08/07 01:48:28;;;;;;;16.48;14.00;;;;;;;29.41;100.00;97185.59;4870716;29;20497;-67
2023/08/07 01:50:57;;;;;;;16.70;12.77;;;;;;;29.59;100.00;97201.63;4855252;29;20049;-67
2023/08/07 01:53:27;;;;;;;19.05;13.23;;;;;;;29.70;100.00;97216.31;4854443;29;20451;-67
2023/08/07 01:55:56;;;;;;;14.05;12.38;;;;;;;29.72;100.00;97216.75;4878796;29;20367;-67
2023/08/07 01:58:26;;;;;;;16.67;12.95;;;;;;;29.72;100.00;97214.03;4854665;29;20049;-67
2023/08/07 02:00:56;;;;;;;14.35;12.25;;;;;;;29.69;100.00;97218.28;4870450;29;20064;-68
2023/08/07 02:03:26;;;;;;;18.42;12.20;;;;;;;29.74;100.00;97225.41;4859654;29;20120;-66
2023/08/07 02:05:56;;;;;;;18.90;12.57;;;;;;;29.81;100.00;97234.53;4839756;29;20053;-66
2023/08/07 02:08:26;;;;;;;15.25;12.45;;;;;;;29.87;100.00;97240.53;4874444;29;20140;-66
2023/08/07 02:10:56;;;;;;;20.27;13.50;;;;;;;29.84;100.00;97247.47;4871103;29;20157;-67
2023/08/07 02:13:26;;;;;;;23.40;13.80;;;;;;;29.93;100.00;97235.59;4854730;29;20065;-66
2023/08/07 02:15:56;;;;;;;27.35;13.60;;;;;;;29.72;100.00;97249.50;4863549;29;20045;-66
2023/08/07 02:18:26;;;;;;;20.55;14.00;;;;;;;29.58;100.00;97247.22;4864706;29;20049;-66
2023/08/07 02:20:55;;;;;;;18.60;14.50;;;;;;;29.62;100.00;97239.13;4858842;29;20193;-66
2023/08/07 02:23:27;;;;;;;20.73;16.50;;;;;;;29.58;100.00;97246.41;4854405;29;20057;-66
2023/08/07 02:25:58;;;;;;;16.85;13.63;;;;;;;29.57;100.00;97242.91;4871242;29;20059;-66
2023/08/07 02:28:27;;;;;;;18.42;12.00;;;;;;;29.55;100.00;97244.41;4868221;29;20057;-67
2023/08/07 02:30:56;;;;;;;15.80;11.35;;;;;;;29.62;100.00;97239.13;4866175;29;20064;-66
2023/08/07 02:33:44;;;;;;;12.77;10.23;;;;;;;29.53;100.00;97261.13;4857513;29;20205;-66
2023/08/07 02:36:14;;;;;;;15.25;11.63;;;;;;;29.51;100.00;97307.06;4853342;29;20149;-66
2023/08/07 02:38:43;;;;;;;18.38;9.30;;;;;;;29.17;100.00;97292.06;4868351;29;20052;-66
2023/08/07 02:41:13;;;;;;;14.38;9.15;;;;;;;29.07;100.00;97297.25;4871205;29;20529;-66
2023/08/07 02:43:42;;;;;;;18.75;6.63;;;;;;;28.75;100.00;97296.34;4869755;29;20457;-66
2023/08/07 02:46:13;;;;;;;14.18;6.60;;;;;;;28.65;100.00;97296.78;4866047;29;20813;-66
2023/08/07 02:48:45;;;;;;;20.45;5.30;;;;;;;28.65;100.00;97294.84;4846736;29;20073;-66
2023/08/07 02:51:33;;;;;;;8.27;4.40;;;;;;;28.51;100.00;97295.22;4877259;29;20139;-65
2023/08/07 02:54:20;;;;;;;7.43;3.72;;;;;;;28.39;100.00;97280.81;4868625;29;20150;-66
2023/08/07 02:59:38;;;;;;;5.90;3.58;;;;;;;28.47;100.00;97277.97;4867588;29;20201;-66
2023/08/07 03:02:07;;;;;;;3.78;3.08;;;;;;;28.51;100.00;97269.88;4867075;29;20113;-66
2023/08/07 03:04:37;;;;;;;5.50;3.10;;;;;;;28.68;100.00;97269.63;4865282;29;20464;-66
2023/08/07 03:07:07;;;;;;;7.25;3.22;;;;;;;28.94;100.00;97258.34;4838439;29;20050;-66
2023/08/07 03:09:36;;;;;;;8.23;3.10;;;;;;;29.11;100.00;97238.94;4855334;29;20068;-66
2023/08/07 03:12:06;;;;;;;6.30;2.85;;;;;;;29.29;100.00;97237.53;4858922;29;20059;-66
2023/08/07 03:14:36;;;;;;;5.15;3.00;;;;;;;29.51;100.00;97235.34;4832859;29;20133;-67
2023/08/07 03:17:06;;;;;;;4.45;2.85;;;;;;;29.67;100.00;97230.66;4837809;29;20060;-67
2023/08/07 03:19:35;;;;;;;5.43;3.30;;;;;;;29.90;99.33;97226.19;4846466;29;20055;-67
2023/08/07 03:22:05;;;;;;;8.38;4.90;;;;;;;30.01;99.39;97227.22;4852409;29;20398;-67
2023/08/07 03:24:35;;;;;;;11.50;5.47;;;;;;;30.05;98.47;97211.72;4836456;29;20133;-68
2023/08/07 03:27:22;;;;;;;13.48;6.13;;;;;;;30.07;96.57;97201.25;4860858;29;20691;-67
2023/08/07 03:29:52;;;;;;;16.45;7.00;;;;;;;30.38;99.91;97199.56;4860514;29;20045;-67
2023/08/07 03:32:25;;;;;;;8.85;7.38;;;;;;;30.44;97.69;97196.19;4868049;29;20053;-67
2023/08/07 03:34:55;;;;;;;12.48;6.55;;;;;;;30.67;94.42;97199.06;4853242;29;20050;-68
2023/08/07 03:37:25;;;;;;;8.40;5.45;;;;;;;30.60;94.13;97191.50;4862464;29;20041;-67
2023/08/07 03:39:54;;;;;;;13.10;6.80;;;;;;;30.73;93.90;97178.47;4852207;29;20149;-67
2023/08/07 03:42:24;;;;;;;9.98;7.10;;;;;;;30.96;93.92;97173.84;4852396;29;20049;-64
2023/08/07 03:45:12;;;;;;;10.73;6.30;;;;;;;30.93;94.60;97177.31;4853981;29;20069;-67
2023/08/07 03:47:42;;;;;;;10.75;5.80;;;;;;;30.43;92.29;97161.81;4852347;29;20084;-67
2023/08/07 03:50:11;;;;;;;11.00;5.93;;;;;;;30.62;93.88;97172.00;4851547;29;20053;-67
2023/08/07 03:52:40;;;;;;;6.18;4.50;;;;;;;30.99;91.63;97159.44;4838134;29;20445;-67
2023/08/07 03:55:11;;;;;;;7.53;5.07;;;;;;;31.09;91.06;97169.81;4850554;29;20065;-67
2023/08/07 03:57:41;;;;;;;10.10;5.30;;;;;;;31.11;90.63;97170.22;4852565;29;20053;-68
2023/08/07 04:00:11;;;;;;;8.52;5.20;;;;;;;31.20;92.05;97175.47;4851515;29;20056;-67
2023/08/07 04:02:40;;;;;;;8.13;4.93;;;;;;;31.23;91.12;97177.47;4853436;29;20049;-68
2023/08/07 04:05:13;;;;;;;9.23;4.30;;;;;;;31.32;89.38;97178.03;4871100;29;20064;-67
2023/08/07 04:07:43;;;;;;;9.07;5.78;;;;;;;31.60;88.81;97185.97;4856953;29;20064;-67
2023/08/07 04:10:12;;;;;;;11.55;5.97;;;;;;;31.77;86.58;97181.91;4856003;29;20164;-67
2023/08/07 04:12:41;;;;;;;10.48;4.70;;;;;;;32.10;89.80;97171.09;4856458;29;20563;-68
2023/08/07 04:15:11;;;;;;;7.78;5.32;;;;;;;31.85;86.84;97167.97;4857938;29;20112;-67
2023/08/07 04:17:40;;;;;;;13.35;5.68;;;;;;;31.88;85.73;97158.22;4868241;29;20044;-68
2023/08/07 04:20:10;;;;;;;10.13;5.28;;;;;;;32.13;86.87;97164.09;4855168;29;20053;-68
2023/08/07 04:22:57;;;;;;;8.73;5.93;;;;;;;32.47;85.05;97161.03;4856238;29;20056;-68
2023/08/07 04:25:26;;;;;;;12.20;6.75;;;;;;;32.62;84.08;97156.50;4870384;29;20084;-68
2023/08/07 04:27:56;;;;;;;18.00;6.65;;;;;;;33.00;81.62;97152.63;4855627;29;20557;-67
2023/08/07 04:30:25;;;;;;;12.35;5.47;;;;;;;32.73;82.06;97162.91;4877254;29;20049;-68
2023/08/07 04:32:55;;;;;;;10.18;5.93;;;;;;;32.52;82.12;97171.66;4839778;29;20450;-68
2023/08/07 04:35:24;;;;;;;12.43;6.35;;;;;;;32.47;81.98;97173.94;4869104;29;20052;-67
2023/08/07 04:37:53;;;;;;;12.95;8.15;;;;;;;32.58;81.95;97169.34;4869318;29;20041;-66
2023/08/07 04:40:23;;;;;;;14.50;6.38;;;;;;;32.92;85.37;97162.75;4853634;29;20049;-66
2023/08/07 04:42:53;;;;;;;13.02;6.80;;;;;;;32.83;83.94;97170.47;4871948;29;20063;-67
2023/08/07 04:45:22;;;;;;;17.50;9.88;;;;;;;32.54;82.66;97176.75;4867843;29;20069;-67
2023/08/07 04:47:52;;;;;;;15.88;8.57;;;;;;;32.95;83.45;97177.66;4853667;29;20128;-67
2023/08/07 04:50:22;;;;;;;17.48;8.70;;;;;;;33.16;81.68;97188.88;4854014;29;20053;-68
2023/08/07 04:52:51;;;;;;;18.98;10.20;;;;;;;33.61;80.51;97182.22;4854314;29;20361;-68
2023/08/07 04:55:29;;;;;;;17.30;8.48;;;;;;;34.04;77.38;97190.78;4869471;29;20132;-68
2023/08/07 04:58:00;;;;;;;21.77;11.48;;;;;;;33.75;78.00;97193.34;4871261;29;20115;-67
2023/08/07 05:00:29;;;;;;;19.55;9.98;;;;;;;34.05;76.61;97204.16;4870226;29;20056;-68
2023/08/07 05:03:18;;;;;;;19.52;11.15;;;;;;;34.18;75.08;97202.72;4872509;29;20057;-67
2023/08/07 05:05:48;;;;;;;20.65;10.45;;;;;;;34.71;74.78;97215.97;4870715;29;20375;-67
2023/08/07 05:08:18;;;;;;;20.48;11.02;;;;;;;35.01;76.21;97215.66;4870274;29;20514;-67
2023/08/07 05:10:48;;;;;;;20.77;12.60;;;;;;;34.94;73.21;97205.44;4870790;29;20069;-67
2023/08/07 05:13:17;;;;;;;28.48;15.18;;;;;;;34.99;73.47;97209.78;4869327;29;20060;-68
2023/08/07 05:15:50;;;;;;;23.48;12.95;;;;;;;35.01;72.67;97212.91;4854992;29;20052;-68
2023/08/07 05:18:19;;;;;;;20.23;12.77;;;;;;;35.07;72.79;97208.63;4854567;29;20204;-68
2023/08/07 05:23:37;;;;;;;20.60;12.38;;;;;;;34.62;74.37;97216.28;4862629;29;20143;-68
2023/08/07 05:26:06;;;;;;;29.70;13.43;;;;;;;34.60;73.51;97226.91;4836327;29;20448;-69
2023/08/07 05:28:35;;;;;;;28.70;13.38;;;;;;;34.84;75.98;97216.41;4869312;29;20461;-68
2023/08/07 05:31:04;;;;;;;31.75;14.95;;;;;;;35.03;78.65;97219.63;4853424;29;20067;-68
2023/08/07 05:33:34;;;;;;;27.63;12.95;;;;;;;34.77;75.63;97213.63;4868978;29;20082;-67
2023/08/07 05:36:05;;;;;;;28.27;14.40;;;;;;;34.92;73.45;97216.03;4866960;29;20063;-67
2023/08/07 05:38:35;;;;;;;33.75;13.80;;;;;;;35.11;73.54;97218.47;4870028;29;20054;-67
2023/08/07 05:41:04;;;;;;;28.02;13.93;;;;;;;34.90;74.62;97223.13;4874620;29;20099;-67
2023/08/07 05:43:33;;;;;;;34.50;13.45;;;;;;;35.21;76.00;97222.44;4855245;29;20389;-66
2023/08/07 05:46:02;;;;;;;30.38;14.40;;;;;;;35.20;74.76;97214.56;4867297;29;20644;-69
2023/08/07 05:48:33;;;;;;;33.95;15.13;;;;;;;35.49;75.54;97208.75;4867786;29;20151;-67
2023/08/07 05:51:02;;;;;;;31.55;15.93;;;;;;;35.50;74.26;97207.53;4869828;29;20049;-68
2023/08/07 05:53:31;;;;;;;29.05;14.38;;;;;;;35.07;75.05;97205.88;4854323;29;20136;-68
2023/08/07 05:56:01;;;;;;;32.50;15.43;;;;;;;35.30;74.02;97209.09;4870989;29;20635;-67
2023/08/07 05:58:30;;;;;;;34.20;15.38;;;;;;;35.05;73.30;97198.00;4876775;29;20045;-68
2023/08/07 06:00:59;;;;;;;31.15;13.23;;;;;;;35.40;75.31;97204.78;4870542;29;20057;-68
2023/08/07 06:06:18;;;;;;;29.50;15.90;;;;;;;35.20;73.62;97196.09;4870358;29;20162;-68
2023/08/07 06:08:48;;;;;;;31.10;14.55;;;;;;;34.90;76.23;97181.84;4868655;29;20075;-67
2023/08/07 06:11:17;;;;;;;34.10;15.85;;;;;;;35.06;77.19;97177.56;4876329;29;20060;-68
2023/08/07 06:13:49;;;;;;;33.47;15.32;;;;;;;34.94;76.34;97174.38;4864920;29;20551;-68
2023/08/07 06:16:19;;;;;;;28.42;14.50;;;;;;;34.87;75.25;97175.16;4868710;29;20063;-69
2023/08/07 06:18:51;;;;;;;33.17;15.03;;;;;;;34.97;76.39;97162.59;4867192;29;20056;-68
2023/08/07 06:21:20;;;;;;;27.40;13.85;;;;;;;34.77;76.54;97164.13;4869135;29;20045;-69
2023/08/07 06:23:50;;;;;;;31.30;14.25;;;;;;;34.71;77.40;97160.94;4870524;29;20430;-69
2023/08/07 06:26:19;;;;;;;34.53;15.27;;;;;;;34.64;79.37;97153.44;4867731;29;20049;-68
2023/08/07 06:28:50;;;;;;;36.63;15.43;;;;;;;34.63;79.57;97143.59;4853770;29;20130;-69
2023/08/07 06:34:07;;;;;;;33.95;14.40;;;;;;;34.35;79.75;97142.69;4853518;29;20053;-68
2023/08/07 06:36:36;;;;;;;39.33;15.70;;;;;;;34.31;80.40;97150.16;4853305;29;20646;-69
2023/08/07 06:39:06;;;;;;;36.85;15.75;;;;;;;34.13;82.34;97156.31;4870892;29;20777;-69
2023/08/07 06:41:36;;;;;;;33.50;14.90;;;;;;;34.09;81.73;97143.72;4871973;29;20061;-70
2023/08/07 06:44:06;;;;;;;44.33;17.58;;;;;;;34.35;81.51;97143.50;4852187;29;20084;-70
2023/08/07 06:46:35;;;;;;;45.38;16.30;;;;;;;34.36;80.75;97139.56;4843186;29;20433;-69
2023/08/07 06:49:04;;;;;;;40.97;14.93;;;;;;;34.35;82.24;97140.75;4870517;29;20136;-71
2023/08/07 06:51:34;;;;;;;32.42;14.85;;;;;;;34.43;83.75;97139.63;4870821;29;20358;-71
2023/08/07 06:54:04;;;;;;;32.70;14.40;;;;;;;34.61;83.87;97139.69;4871615;29;20137;-66
2023/08/07 06:56:34;;;;;;;37.78;16.15;;;;;;;34.62;82.88;97139.28;4871667;29;20116;-68
2023/08/07 06:59:04;;;;;;;35.83;15.77;;;;;;;34.40;84.44;97134.88;4854497;29;20080;-69
2023/08/07 07:01:33;;;;;;;33.85;17.67;;;;;;;34.35;81.05;97129.75;4872664;29;20082;-69
2023/08/07 07:04:02;;;;;;;41.33;18.67;;;;;;;34.28;81.84;97132.47;4874183;29;20065;-69
2023/08/07 07:06:32;;;;;;;31.95;17.23;;;;;;;34.34;82.35;97139.19;4873978;29;20057;-68
2023/08/07 07:09:01;;;;;;;33.10;19.58;;;;;;;34.34;81.68;97133.69;4871640;29;20053;-71
2023/08/07 07:11:30;;;;;;;31.25;18.17;;;;;;;34.33;85.09;97137.59;4857586;29;20067;-69
2023/08/07 07:14:00;;;;;;;34.92;18.35;;;;;;;34.24;88.37;97142.66;4871969;29;20061;-69
2023/08/07 07:16:29;;;;;;;35.97;15.00;;;;;;;34.03;86.77;97148.03;4871076;29;20045;-70
2023/08/07 07:18:59;;;;;;;26.08;13.70;;;;;;;34.00;87.46;97140.53;4857306;29;20045;-69
2023/08/07 07:21:29;;;;;;;25.38;13.55;;;;;;;34.01;88.96;97144.84;4839605;29;20496;-67
2023/08/07 07:23:58;;;;;;;28.73;13.95;;;;;;;34.06;88.06;97147.25;4872084;29;20380;-65
2023/08/07 07:26:28;;;;;;;21.83;14.80;;;;;;;34.06;87.96;97139.00;4855605;29;20056;-67
2023/08/07 07:29:17;;;;;;;31.98;14.90;;;;;;;33.83;88.17;97145.53;4871444;29;20473;-69
2023/08/07 07:31:47;;;;;;;25.05;13.20;;;;;;;33.81;90.30;97136.88;4854277;29;20045;-68
2023/08/07 07:34:16;;;;;;;31.67;13.10;;;;;;;33.70;89.43;97141.53;4852620;29;20049;-68
2023/08/07 07:36:45;;;;;;;28.02;14.15;;;;;;;33.61;88.88;97132.78;4872671;29;20136;-68
2023/08/07 07:39:14;;;;;;;26.83;15.15;;;;;;;33.45;90.10;97126.81;4862441;29;20076;-68
2023/08/07 07:41:44;;;;;;;21.02;13.88;;;;;;;33.53;92.00;97122.94;4872381;29;20112;-67
2023/08/07 07:44:14;;;;;;;27.70;13.90;;;;;;;33.42;89.33;97131.06;4868924;29;20072;-67
2023/08/07 07:46:45;;;;;;;26.00;13.73;;;;;;;33.62;93.80;97125.34;4860967;29;20041;-68
2023/08/07 07:49:15;;;;;;;25.45;13.95;;;;;;;33.55;90.67;97119.81;4868294;29;20045;-68
2023/08/07 07:51:46;;;;;;;24.45;14.20;;;;;;;33.59;90.72;97118.66;4869282;29;20492;-69
2023/08/07 07:54:16;;;;;;;26.95;14.88;;;;;;;33.58;90.49;97122.59;4868180;29;20053;-70
2023/08/07 07:57:03;;;;;;;24.02;13.60;;;;;;;33.65;93.15;97119.09;4852146;29;20064;-68
2023/08/07 07:59:33;;;;;;;31.55;15.30;;;;;;;33.60;89.90;97111.19;4870943;29;20152;-68
2023/08/07 08:02:03;;;;;;;29.77;16.25;;;;;;;33.42;92.05;97116.56;4867907;29;20056;-68
2023/08/07 08:04:35;;;;;;;28.10;15.63;;;;;;;33.38;92.30;97115.75;4881121;29;20112;-69
2023/08/07 08:07:05;;;;;;;28.70;16.37;;;;;;;33.25;89.68;97108.97;4855860;29;20048;-69
2023/08/07 08:09:36;;;;;;;38.15;16.65;;;;;;;33.33;91.44;97111.38;4883636;29;20413;-68
2023/08/07 08:12:06;;;;;;;39.63;16.83;;;;;;;33.42;92.55;97119.31;4869854;29;20052;-72
2023/08/07 08:14:35;;;;;;;41.33;20.08;;;;;;;33.24;89.49;97101.91;4854240;29;20539;-67
2023/08/07 08:17:23;;;;;;;32.22;18.00;;;;;;;33.35;94.54;97106.31;4883403;29;20514;-68
2023/08/07 08:19:52;;;;;;;34.05;19.65;;;;;;;33.36;92.29;97105.16;4869070;29;20069;-68
2023/08/07 08:22:22;;;;;;;32.80;18.60;;;;;;;33.38;91.43;97105.56;4867201;29;20057;-71
2023/08/07 08:24:51;;;;;;;29.15;18.33;;;;;;;33.61;92.62;97104.53;4869703;29;20064;-73
2023/08/07 08:27:21;;;;;;;36.38;23.00;;;;;;;33.82;91.70;97100.00;4865913;29;20116;-68
2023/08/07 08:29:51;;;;;;;48.50;27.88;;;;;;;33.92;88.62;97092.19;4864762;29;20120;-68
2023/08/07 08:32:20;;;;;;;46.50;27.70;;;;;;;33.94;88.66;97098.13;4881151;29;20396;-67
2023/08/07 08:35:08;;;;;;;39.47;24.42;;;;;;;33.98;88.81;97090.69;4870486;29;20064;-67
2023/08/07 08:37:38;;;;;;;46.83;24.30;;;;;;;33.96;87.82;97087.50;4884428;29;20071;-68
2023/08/07 08:40:11;;;;;;;42.67;23.80;;;;;;;34.02;90.12;97083.25;4868737;29;20056;-68
2023/08/07 08:42:41;;;;;;;42.42;22.58;;;;;;;33.97;89.69;97095.38;4867381;29;20058;-68
2023/08/07 08:45:14;;;;;;;46.65;22.40;;;;;;;33.94;90.53;97092.63;4871393;29;20053;-68
2023/08/07 08:47:44;;;;;;;;;;;;;;;33.89;89.96;97090.25;4868643;29;20045;-68
2023/08/07 08:50:15;;;;;;;39.35;20.67;;;;;;;33.91;89.07;97090.63;4854364;29;19931;-68
2023/08/07 08:52:46;;;;;;;43.47;20.65;;;;;;;34.15;88.11;97084.47;4869820;29;20053;-69
2023/08/07 08:55:16;;;;;;;34.97;20.58;;;;;;;34.33;86.48;97090.06;4867804;29;20053;-68
2023/08/07 08:57:46;;;;;;;33.20;19.83;;;;;;;34.24;87.15;97087.69;4870428;29;20136;-68
2023/08/07 09:00:21;;;;;;;36.85;19.80;;;;;;;34.19;87.88;97088.06;4883879;29;20052;-69
2023/08/07 09:02:52;;;;;;;47.45;22.13;;;;;;;34.24;88.19;97087.69;4869015;29;20148;-68
2023/08/07 09:05:22;;;;;;;40.72;21.08;;;;;;;34.35;87.80;97077.50;4866034;29;20045;-69
2023/08/07 09:08:10;;;;;;;44.00;21.20;;;;;;;34.50;86.45;97075.59;4852061;29;20057;-68
2023/08/07 09:10:59;;;;;;;42.17;20.50;;;;;;;34.66;86.20;97070.53;4837483;29;20064;-70
2023/08/07 09:13:29;;;;;;;40.58;20.65;;;;;;;34.63;85.12;97082.31;4869915;29;20056;-69
2023/08/07 09:16:00;;;;;;;38.95;19.15;;;;;;;34.62;84.70;97070.50;4869060;29;20064;-69
2023/08/07 09:18:31;;;;;;;32.78;19.40;;;;;;;34.67;86.81;97070.16;4850399;29;20053;-67
2023/08/07 09:24:07;;;;;;;32.03;16.15;;;;;;;34.64;83.88;97070.13;4852937;29;20052;-69
2023/08/07 09:26:37;;;;;;;39.05;17.55;;;;;;;34.65;82.27;97072.47;4868933;29;20049;-67
2023/08/07 09:29:09;;;;;;;34.33;16.45;;;;;;;34.69;80.79;97080.78;4865797;29;20140;-67
2023/08/07 09:31:46;;;;;;;42.17;16.23;;;;;;;34.79;80.21;97073.75;4867969;29;20057;-69
2023/08/07 09:34:21;;;;;;;32.90;15.55;;;;;;;34.80;79.10;97073.31;4862059;29;20150;-67
2023/08/07 09:36:52;;;;;;;36.80;15.73;;;;;;;34.78;79.95;97067.44;4868829;29;20544;-67
2023/08/07 09:42:16;;;;;;;33.55;14.85;;;;;;;34.88;83.38;97060.34;4870806;29;20049;-68
2023/08/07 09:44:48;;;;;;;32.38;14.02;;;;;;;34.94;82.49;97058.81;4839480;29;20088;-68
2023/08/07 09:47:19;;;;;;;34.25;15.88;;;;;;;34.88;80.15;97054.84;4829221;29;20905;-68
2023/08/07 09:49:54;;;;;;;27.25;13.88;;;;;;;34.89;83.40;97056.44;4848098;29;20053;-71
2023/08/07 09:52:26;;;;;;;35.40;13.43;;;;;;;34.81;81.18;97049.34;4867743;29;20546;-70
2023/08/07 09:54:58;;;;;;;33.17;12.07;;;;;;;34.74;82.38;97044.66;4868767;29;20057;-71
2023/08/07 09:57:28;;;;;;;34.88;11.70;;;;;;;34.72;82.41;97041.50;4851869;29;20057;-70
2023/08/07 09:59:57;;;;;;;32.88;12.60;;;;;;;34.77;82.97;97040.31;4853373;29;20057;-73
2023/08/07 10:02:49;;;;;;;28.38;11.40;;;;;;;34.68;86.08;97038.75;4870141;29;20049;-70
2023/08/07 10:05:19;;;;;;;34.63;12.85;;;;;;;34.59;84.37;97037.50;4869411;29;20041;-73
2023/08/07 10:07:50;;;;;;;28.17;10.27;;;;;;;34.58;83.50;97041.44;4852827;29;20067;-72
2023/08/07 10:10:20;;;;;;;37.25;11.77;;;;;;;34.66;82.69;97043.03;4851462;29;20053;-70
2023/08/07 10:12:49;;;;;;;28.92;10.35;;;;;;;34.73;83.00;97054.06;4866058;29;20069;-67
2023/08/07 10:15:19;;;;;;;28.02;11.23;;;;;;;34.75;82.06;97046.19;4851330;29;20614;-68
2023/08/07 10:17:49;;;;;;;28.85;10.20;;;;;;;34.75;82.05;97040.69;4869716;29;20067;-68
2023/08/07 10:20:20;;;;;;;33.63;12.38;;;;;;;34.78;82.79;97041.91;4878825;29;20049;-68
2023/08/07 10:22:52;;;;;;;42.65;13.35;;;;;;;34.82;81.50;97032.47;4856135;29;20381;-69
2023/08/07 10:25:24;;;;;;;33.40;11.13;;;;;;;34.87;81.81;97040.34;4870058;29;20148;-72
2023/08/07 10:27:57;;;;;;;34.75;11.07;;;;;;;34.84;82.37;97035.59;4869273;29;20053;-69
2023/08/07 10:30:27;;;;;;;29.80;9.65;;;;;;;34.81;80.66;97039.16;4872487;29;20055;-69
2023/08/07 10:32:59;;;;;;;37.85;12.10;;;;;;;34.75;81.35;97045.41;4875631;29;20744;-67
2023/08/07 10:35:34;;;;;;;38.13;9.95;;;;;;;34.59;83.51;97043.00;4872399;29;20056;-66
2023/08/07 10:38:10;;;;;;;34.67;9.13;;;;;;;34.68;81.95;97041.50;4868114;29;20114;-66
2023/08/07 10:41:14;;;;;;;31.48;9.18;;;;;;;34.69;81.95;97037.56;4852219;29;20089;-68
2023/08/07 10:43:47;;;;;;;35.42;9.38;;;;;;;34.64;80.75;97031.63;4866485;29;20704;-67
2023/08/07 10:46:23;;;;;;;34.17;8.43;;;;;;;34.69;80.67;97028.53;4860292;29;20052;-68
2023/08/07 10:49:14;;;;;;;34.28;9.40;;;;;;;34.70;80.00;97027.31;4839866;29;20052;-68
2023/08/07 10:51:45;;;;;;;29.10;8.38;;;;;;;34.68;80.56;97027.75;4871853;29;20060;-68
2023/08/07 10:54:22;;;;;;;24.77;8.45;;;;;;;34.65;79.58;97033.97;4870700;29;20053;-71
2023/08/07 10:56:55;;;;;;;26.00;8.13;;;;;;;34.61;80.99;97024.16;4867573;29;20060;-71
2023/08/07 10:59:25;;;;;;;28.83;8.77;;;;;;;34.59;81.52;97027.31;4871469;29;20080;-71
2023/08/07 11:01:55;;;;;;;32.55;7.40;;;;;;;34.64;81.14;97029.66;4869129;29;20646;-70
2023/08/07 11:04:26;;;;;;;36.10;7.88;;;;;;;34.66;81.62;97026.53;4870048;29;20064;-69
2023/08/07 11:06:56;;;;;;;28.73;7.60;;;;;;;34.62;80.68;97028.47;4870641;29;20056;-68
2023/08/07 11:09:27;;;;;;;31.88;7.75;;;;;;;34.62;79.92;97026.50;4854331;29;20053;-66
2023/08/07 11:11:56;;;;;;;21.10;7.70;;;;;;;34.61;81.41;97019.44;4854425;29;20123;-66
2023/08/07 11:14:26;;;;;;;23.80;7.45;;;;;;;34.60;79.09;97028.88;4874440;29;20148;-66
2023/08/07 11:16:56;;;;;;;29.85;7.55;;;;;;;34.59;83.00;97032.00;4878230;29;20068;-68
2023/08/07 11:19:34;;;;;;;25.88;8.57;;;;;;;34.47;80.27;97035.94;4868335;29;20140;-67
2023/08/07 11:22:09;;;;;;;32.40;8.23;;;;;;;34.19;83.78;97025.63;4869972;29;20073;-67
2023/08/07 11:24:40;;;;;;;31.50;8.33;;;;;;;34.06;81.12;97029.88;4855091;29;20067;-67
2023/08/07 11:27:09;;;;;;;23.73;12.32;;;;;;;33.86;82.06;97022.34;4869933;29;20916;-67
2023/08/07 11:29:38;;;;;;;21.90;12.10;;;;;;;33.78;85.42;97016.00;4853321;29;20155;-67
2023/08/07 11:32:09;;;;;;;27.95;12.98;;;;;;;33.54;85.33;97028.41;4870809;29;20059;-67
2023/08/07 11:34:39;;;;;;;20.20;11.50;;;;;;;33.21;82.55;97020.34;4871302;29;20589;-67
2023/08/07 11:37:17;;;;;;;19.80;11.07;;;;;;;32.99;85.76;97013.88;4854025;29;20041;-67
2023/08/07 11:39:46;;;;;;;19.65;10.82;;;;;;;32.87;84.08;97022.41;4872515;29;20056;-67
2023/08/07 11:42:15;;;;;;;22.35;10.73;;;;;;;32.83;85.19;97027.06;4854761;29;20533;-66
2023/08/07 11:44:45;;;;;;;22.67;10.68;;;;;;;32.87;85.84;97020.44;4855399;29;20136;-66
2023/08/07 11:47:34;;;;;;;29.85;11.70;;;;;;;32.77;87.24;97029.38;4868434;29;20056;-67
2023/08/07 11:50:03;;;;;;;25.38;9.90;;;;;;;32.55;86.20;97019.31;4871568;29;20049;-66
2023/08/07 11:52:33;;;;;;;16.80;9.27;;;;;;;32.49;85.95;97018.88;4870018;29;20076;-66
2023/08/07 11:55:03;;;;;;;18.52;9.63;;;;;;;32.51;85.60;97022.03;4869850;29;20080;-66
2023/08/07 11:57:33;;;;;;;32.92;11.90;;;;;;;32.39;87.01;97019.56;4869474;29;20259;-65
2023/08/07 12:00:08;;;;;;;23.17;11.05;;;;;;;32.38;85.53;97017.19;4857943;29;20048;-67